Thunder radar more information blitzortung!


Radar de pluja more information rain snow radar


Visita la nostra xarxa de llocs de meteo:

Template documentation
and downloads

And another site



No particular awareness of the weather is required.    There are no Weather-warnings

Pagina Historial Weather Underground text

Diari Resum Novembre 8, 2017 Unitats:  Mètric    Imperial   Tant
« Previous Dia
SegĂźent Dia »
Diari Setmana Mensual Anual Personalitzada
  Maxima: Minima: Media:
Temperatura: -17.8 °C -16 °C -13 °C
Punt de rosada: -17.8 °C -21 °C -18.1 °C
Humitat: Humidity % 46 % 52 %
Wind Speed: 0 km/h 0 km/h 4.8 km/h
RĂ fegues de vent: 0 km/h - -
Vent:- - SSE
Pression baro: 0 hPa 34533.8 hPa -
Precipitacions: 0 mm    
Historical Graphs
 
 
Dades de taula per Novembre 8, 2017
Temps Temperatura Punt de rosada Pression baro Vent Wind Speed RĂ fegues de vent Humitat Rainfall Rate (Hourly)
-17.8 °C -17.8 °C 0 hPa Calm     Humidity % 0 mm
00:04 -15.2 °C -21 °C 34533.8 hPa WSW 6 km/h 6 km/h 47 % 0 mm
00:05 -15.7 °C -20.8 °C 34533.8 hPa West 2.6 km/h 5.1 km/h 51 % 0 mm
00:15 -15.8 °C -20.7 °C 34533.8 hPa Calm   5.1 km/h 52 % 0 mm
00:25 -15.9 °C -20.9 °C 34533.8 hPa WSW 2.6 km/h 5.1 km/h 52 % 0 mm
00:35 -15.9 °C -20.9 °C 34533.8 hPa SW 2.6 km/h 5.1 km/h 52 % 0 mm
00:45 -15.9 °C -20.9 °C 34533.8 hPa Calm     52 % 0 mm
00:55 -15.9 °C -20.9 °C 34533.8 hPa SW 5.1 km/h 5.1 km/h 52 % 0 mm
01:05 -15.9 °C -20.9 °C 34533.8 hPa WSW 2.6 km/h 5.1 km/h 52 % 0 mm
01:15 -15.9 °C -20.9 °C 34533.8 hPa West 2.6 km/h 5.1 km/h 52 % 0 mm
01:35 -15.8 °C -20.7 °C 34533.8 hPa Calm   5.1 km/h 53 % 0 mm
01:45 -15.8 °C -20.8 °C 34533.8 hPa WSW 2.6 km/h 5.1 km/h 52 % 0 mm
01:55 -15.7 °C -20.7 °C 34567.7 hPa West 2.6 km/h 5.1 km/h 52 % 0 mm
02:05 -15.6 °C -20.4 °C 34567.7 hPa NW 5.1 km/h 7.7 km/h 53 % 0 mm
02:15 -15.9 °C -20.7 °C 34601.5 hPa NNE 7.7 km/h 10.3 km/h 53 % 0 mm
02:25 -16 °C -20.9 °C 34601.5 hPa NNE 2.6 km/h 10.3 km/h 52 % 0 mm
02:35 -15.5 °C -20.3 °C 34601.5 hPa Calm   5.1 km/h 53 % 0 mm
02:45 -15.3 °C -20.2 °C 34601.5 hPa Calm   5.1 km/h 53 % 0 mm
02:55 -15 °C -19.9 °C 34601.5 hPa West 2.6 km/h 7.7 km/h 53 % 0 mm
03:05 -14.8 °C -19.9 °C 34601.5 hPa NW 5.1 km/h 5.1 km/h 52 % 0 mm
03:15 -14.5 °C -19.6 °C 34601.5 hPa NW 2.6 km/h 7.7 km/h 52 % 0 mm
03:25 -14.1 °C -19.2 °C 34601.5 hPa WNW 2.6 km/h 5.1 km/h 52 % 0 mm
03:35 -13.8 °C -18.9 °C 34601.5 hPa NW 5.1 km/h 10.3 km/h 52 % 0 mm
03:45 -13.5 °C -18.8 °C 34567.7 hPa NNW 5.1 km/h 7.7 km/h 51 % 0 mm
03:55 -13.2 °C -18.5 °C 34601.5 hPa NNW 2.6 km/h 2.6 km/h 51 % 0 mm
04:05 -12.9 °C -18.3 °C 34601.5 hPa ENE 2.6 km/h 5.1 km/h 51 % 0 mm
04:15 -12.5 °C -17.9 °C 34601.5 hPa ESE 2.6 km/h 5.1 km/h 51 % 0 mm
04:25 -12.8 °C -18.3 °C 34601.5 hPa NE 5.1 km/h 7.7 km/h 50 % 0 mm
04:35 -12.5 °C -18 °C 34601.5 hPa ENE 2.6 km/h 10.3 km/h 50 % 0 mm
04:45 -12.3 °C -18 °C 34601.5 hPa NE 5.1 km/h 5.1 km/h 49 % 0 mm
04:55 -12.5 °C -18.2 °C 34601.5 hPa NE 2.6 km/h 5.1 km/h 49 % 0 mm
11:02 -12.4 °C -18.1 °C 34601.5 hPa North 4.2 km/h 4.2 km/h 49 % 0 mm
11:03 -12.4 °C -18.1 °C 34601.5 hPa North 6 km/h 6 km/h 49 % 0 mm
11:04 -12.4 °C -18.1 °C 34601.5 hPa WNW 6 km/h 6 km/h 49 % 0 mm
11:09 -12.6 °C -18.4 °C 34601.5 hPa NNE 9 km/h 9 km/h 48 % 0 mm
11:14 -12.6 °C -18.4 °C 34601.5 hPa NNE 6.3 km/h 6.3 km/h 48 % 0 mm
11:19 -12.4 °C -18.3 °C 34601.5 hPa NNW 6 km/h   48 % 0 mm
11:24 -12.4 °C -18.3 °C 34601.5 hPa ENE 6 km/h 6 km/h 48 % 0 mm
11:29 -12.3 °C -18.2 °C 34601.5 hPa ENE 6.8 km/h 6.8 km/h 48 % 0 mm
11:34 -12.2 °C -18.1 °C 34601.5 hPa NNW 6 km/h 6 km/h 48 % 0 mm
11:39 -12.1 °C -17.9 °C 34601.5 hPa NNE 3.7 km/h   48 % 0 mm
11:44 -11.9 °C -17.8 °C 34601.5 hPa ENE 6 km/h   48 % 0 mm
11:49 -11.9 °C -17.9 °C 34601.5 hPa WNW 6 km/h 6 km/h 47 % 0 mm
11:54 -11.8 °C -17.9 °C 34567.7 hPa ENE 6.8 km/h 6.8 km/h 47 % 0 mm
11:59 -11.9 °C -17.9 °C 34567.7 hPa NNW 6 km/h 6 km/h 47 % 0 mm
12:04 -11.8 °C -17.9 °C 34567.7 hPa NE 9 km/h 9 km/h 47 % 0 mm
12:09 -11.8 °C -17.8 °C 34601.5 hPa NE 6 km/h 6 km/h 47 % 0 mm
12:14 -11.6 °C -17.6 °C 34601.5 hPa NNW 6 km/h 6 km/h 47 % 0 mm
12:19 -11.6 °C -17.6 °C 34601.5 hPa ENE 6.3 km/h 6.3 km/h 47 % 0 mm
12:24 -11.4 °C -17.5 °C 34601.5 hPa NNW 9 km/h 9 km/h 47 % 0 mm
12:29 -11.4 °C -17.4 °C 34601.5 hPa ENE 11.9 km/h 11.9 km/h 47 % 0 mm
12:34 -11.4 °C -17.5 °C 34601.5 hPa NNE 14 km/h 14 km/h 47 % 0 mm
12:39 -11.6 °C -17.8 °C 34601.5 hPa ENE 11.9 km/h 11.9 km/h 46 % 0 mm
12:44 -11.6 °C -17.8 °C 34601.5 hPa NNE 9 km/h 9 km/h 46 % 0 mm
12:49 -11.5 °C -17.7 °C 34601.5 hPa ESE 6.3 km/h 6.3 km/h 46 % 0 mm
12:54 -11.4 °C -17.7 °C 34601.5 hPa ENE 11.9 km/h 11.9 km/h 46 % 0 mm
12:59 -11.4 °C -17.6 °C 34601.5 hPa NNE 6.8 km/h 6.8 km/h 46 % 0 mm
13:04 -11.3 °C -17.6 °C 34601.5 hPa NE 7.6 km/h 7.6 km/h 46 % 0 mm
13:09 -11.2 °C -17.4 °C 34601.5 hPa NNE 9.8 km/h 9.8 km/h 46 % 0 mm
13:14 -11.2 °C -17.4 °C 34601.5 hPa NE 6 km/h 6 km/h 46 % 0 mm
13:19 -11.2 °C -17.4 °C 34601.5 hPa ENE 9.8 km/h 9.8 km/h 46 % 0 mm
13:24 -11.3 °C -17.6 °C 34601.5 hPa NE 11.9 km/h 11.9 km/h 46 % 0 mm
13:29 -11.2 °C -17.4 °C 34601.5 hPa ENE 11.9 km/h 11.9 km/h 46 % 0 mm
13:34 -11.2 °C -17.4 °C 34601.5 hPa NNE 9 km/h 9 km/h 46 % 0 mm
13:44 -11.2 °C -17.4 °C 34567.7 hPa NNE 11.9 km/h 11.9 km/h 46 % 0 mm
13:49 -11.2 °C -17.4 °C 34567.7 hPa NNE 6.8 km/h   46 % 0 mm
13:54 -11.2 °C -17.4 °C 34567.7 hPa NNE 6 km/h   46 % 0 mm
13:59 -11.2 °C -17.3 °C 34567.7 hPa NNE 6 km/h 6 km/h 47 % 0 mm
14:04 -11.2 °C -17.4 °C 34567.7 hPa NNE 10.3 km/h 10.3 km/h 46 % 0 mm
14:09 -11.3 °C -17.4 °C 34601.5 hPa NNE 9 km/h 9 km/h 47 % 0 mm
14:14 -11.3 °C -17.4 °C 34601.5 hPa West 6 km/h 6 km/h 47 % 0 mm
14:19 -11.3 °C -17.4 °C 34601.5 hPa NNE 9 km/h 9 km/h 47 % 0 mm
14:24 -11.3 °C -17.4 °C 34567.7 hPa NE 11.9 km/h 11.9 km/h 47 % 0 mm
14:29 -11.3 °C -17.4 °C 34567.7 hPa NNE 9 km/h 9 km/h 47 % 0 mm
14:34 -11.3 °C -17.4 °C 34567.7 hPa NW 6 km/h 6 km/h 47 % 0 mm
14:39 -11.3 °C -17.4 °C 34601.5 hPa NE 9 km/h 9 km/h 47 % 0 mm
14:44 -11.3 °C -17.4 °C 34601.5 hPa NE 11.9 km/h 11.9 km/h 47 % 0 mm
14:54 -11.3 °C -17.4 °C 34567.7 hPa NNE 4.2 km/h 4.2 km/h 47 % 0 mm
14:59 -11.3 °C -17.4 °C 34567.7 hPa ENE 11.9 km/h 11.9 km/h 47 % 0 mm
15:04 -11.3 °C -17.4 °C 34567.7 hPa NNE 9 km/h 9 km/h 47 % 0 mm
15:09 -11.3 °C -17.4 °C 34601.5 hPa ENE 9 km/h 9 km/h 47 % 0 mm
15:14 -11.3 °C -17.4 °C 34601.5 hPa NNE 6.3 km/h 6.3 km/h 47 % 0 mm
15:19 -11.3 °C -17.4 °C 34601.5 hPa ENE 6 km/h 6 km/h 47 % 0 mm
15:24 -11.4 °C -17.3 °C 34567.7 hPa NW 6 km/h 6 km/h 48 % 0 mm
15:29 -11.4 °C -17.3 °C 34567.7 hPa North 6 km/h   48 % 0 mm
15:34 -11.3 °C -17.3 °C 34567.7 hPa WNW 6 km/h 6 km/h 48 % 0 mm
15:39 -11.4 °C -17.3 °C 34567.7 hPa NNW 6 km/h 6 km/h 48 % 0 mm
15:44 -11.4 °C -17.3 °C 34567.7 hPa NE 3.1 km/h   48 % 0 mm
15:49 -11.4 °C -17.3 °C 34567.7 hPa NNE 8 km/h 8 km/h 48 % 0 mm
15:54 -11.4 °C -17.1 °C 34601.5 hPa NE 3.7 km/h 3.7 km/h 49 % 0 mm
15:59 -11.4 °C -17.1 °C 34601.5 hPa WNW 3.1 km/h   49 % 0 mm
16:04 -11.3 °C -17.1 °C 34601.5 hPa NNW 3.1 km/h   49 % 0 mm
16:09 -11.3 °C -17.1 °C 34567.7 hPa NNE 6.3 km/h 6.3 km/h 49 % 0 mm
16:14 -11.3 °C -17.1 °C 34567.7 hPa NNE 3.1 km/h 3.1 km/h 49 % 0 mm
16:19 -11.3 °C -17.1 °C 34567.7 hPa NNE 3.1 km/h   49 % 0 mm
16:24 -11.3 °C -16.9 °C 34567.7 hPa North 4.2 km/h 4.2 km/h 50 % 0 mm
16:29 -11.4 °C -17 °C 34567.7 hPa ENE 3.1 km/h   50 % 0 mm
16:34 -11.4 °C -17.1 °C 34567.7 hPa East 6 km/h 6 km/h 50 % 0 mm
16:39 -11.5 °C -17.1 °C 34567.7 hPa NW 6.8 km/h 6.8 km/h 50 % 0 mm
16:44 -11.5 °C -17.1 °C 34567.7 hPa WNW 8 km/h 8 km/h 50 % 0 mm
16:49 -11.6 °C -17.1 °C 34567.7 hPa North 4.2 km/h 4.2 km/h 50 % 0 mm
16:54 -11.6 °C -17.2 °C 34533.8 hPa ENE 9 km/h 9 km/h 50 % 0 mm
16:59 -11.7 °C -17.3 °C 34533.8 hPa North 6.3 km/h 6.3 km/h 50 % 0 mm
17:04 -11.7 °C -17.3 °C 34533.8 hPa NNE 9 km/h 9 km/h 50 % 0 mm
17:09 -11.7 °C -17.3 °C 34567.7 hPa North 3.7 km/h   50 % 0 mm
17:14 -11.8 °C -17.3 °C 34567.7 hPa NNW 6 km/h   50 % 0 mm
17:19 -11.8 °C -17.3 °C 34567.7 hPa WNW 4.2 km/h 4.2 km/h 50 % 0 mm
17:24 -11.8 °C -17.3 °C 34533.8 hPa NW 3.1 km/h   51 % 0 mm
17:29 -11.8 °C -17.3 °C 34533.8 hPa West 3.1 km/h   51 % 0 mm
17:34 -11.8 °C -17.3 °C 34533.8 hPa NNE 3.1 km/h   51 % 0 mm
17:39 -11.9 °C -17.3 °C 34567.7 hPa NE 3.1 km/h 3.1 km/h 51 % 0 mm
17:44 -11.9 °C -17.3 °C 34567.7 hPa Calm     51 % 0 mm
17:49 -11.9 °C -17.3 °C 34567.7 hPa Calm     51 % 0 mm
17:54 -12 °C -17.4 °C 34567.7 hPa Calm     51 % 0 mm
17:59 -12.1 °C -17.4 °C 34567.7 hPa Calm     51 % 0 mm
18:04 -12.1 °C -17.5 °C 34567.7 hPa Calm     51 % 0 mm
18:09 -12.1 °C -17.5 °C 34567.7 hPa WNW 3.1 km/h 3.1 km/h 51 % 0 mm
18:14 -12.2 °C -17.4 °C 34567.7 hPa Calm     52 % 0 mm
18:15 -13.4 °C -18.1 °C 34635.4 hPa NNW 2.6 km/h 5.1 km/h 55 % 0 mm
18:19 -12.2 °C -17.4 °C 34567.7 hPa Calm     52 % 0 mm
18:24 -12.3 °C -17.6 °C 34601.5 hPa Calm     52 % 0 mm
18:25 -13.4 °C -18.2 °C 34601.5 hPa ESE 2.6 km/h 2.6 km/h 55 % 0 mm
18:29 -12.3 °C -17.6 °C 34601.5 hPa WNW 3.7 km/h 3.7 km/h 52 % 0 mm
18:34 -12.4 °C -17.6 °C 34601.5 hPa West 3.1 km/h 3.1 km/h 52 % 0 mm
18:35 -13.5 °C -18.2 °C 34601.5 hPa SSW 2.6 km/h 2.6 km/h 55 % 0 mm
18:39 -12.4 °C -17.5 °C 34567.7 hPa SW 3.1 km/h   53 % 0 mm
18:44 -12.6 °C -17.6 °C 34567.7 hPa Calm     53 % 0 mm
18:45 -13.6 °C -18.3 °C 34601.5 hPa SW 2.6 km/h 10.3 km/h 55 % 0 mm
18:49 -12.6 °C -17.6 °C 34567.7 hPa NE 5.1 km/h 5.1 km/h 53 % 0 mm
18:54 -12.6 °C -17.6 °C 34601.5 hPa NW 3.7 km/h   54 % 0 mm
18:55 -13.7 °C -18.4 °C 34635.4 hPa WSW 5.1 km/h 7.7 km/h 55 % 0 mm
18:59 -12.6 °C -17.6 °C 34601.5 hPa NW 3.1 km/h 3.1 km/h 54 % 0 mm
19:04 -12.6 °C -17.7 °C 34601.5 hPa NW 9 km/h 9 km/h 53 % 0 mm
19:05 -13.8 °C -18.4 °C 34635.4 hPa Calm   5.1 km/h 55 % 0 mm
19:14 -12.7 °C -17.6 °C 34601.5 hPa NNE 3.1 km/h   54 % 0 mm
19:15 -13.9 °C -18.7 °C 34601.5 hPa SW 5.1 km/h 5.1 km/h 55 % 0 mm
19:19 -12.7 °C -17.6 °C 34601.5 hPa NW 3.1 km/h   54 % 0 mm
19:24 -12.7 °C -17.6 °C 34601.5 hPa Calm     54 % 0 mm
19:29 -12.7 °C -17.6 °C 34601.5 hPa Calm     54 % 0 mm
19:34 -12.7 °C -17.6 °C 34601.5 hPa NW 3.1 km/h 3.1 km/h 54 % 0 mm
19:35 -14.2 °C -18.7 °C 34601.5 hPa WSW 5.1 km/h 5.1 km/h 56 % 0 mm
19:39 -12.7 °C -17.6 °C 34601.5 hPa WNW 3.1 km/h   54 % 0 mm
19:44 -12.7 °C -17.6 °C 34601.5 hPa WNW 5.6 km/h 5.6 km/h 54 % 0 mm
19:45 -14.3 °C -18.8 °C 34601.5 hPa SW 5.1 km/h 5.1 km/h 56 % 0 mm
19:49 -12.7 °C -17.6 °C 34601.5 hPa NNE 5.1 km/h 5.1 km/h 54 % 0 mm
19:54 -12.7 °C -17.6 °C 34601.5 hPa Calm     54 % 0 mm
19:55 -14.4 °C -18.8 °C 34601.5 hPa SW 2.6 km/h 7.7 km/h 57 % 0 mm
19:59 -12.7 °C -17.6 °C 34601.5 hPa South 3.1 km/h   54 % 0 mm
20:04 -12.8 °C -17.7 °C 34601.5 hPa WSW 4.2 km/h   54 % 0 mm
20:05 -14.6 °C -18.9 °C 34601.5 hPa SW 2.6 km/h 5.1 km/h 57 % 0 mm
20:14 -13.1 °C -17.8 °C 34601.5 hPa NE 4.2 km/h 4.2 km/h 55 % 0 mm
20:15 -14.6 °C -18.9 °C 34635.4 hPa WSW 5.1 km/h 5.1 km/h 57 % 0 mm
20:19 -13.1 °C -17.7 °C 34601.5 hPa NE 3.7 km/h   56 % 0 mm
20:24 -13.1 °C -17.7 °C 34601.5 hPa Calm     56 % 0 mm
20:25 -14.6 °C -18.8 °C 34635.4 hPa Calm   5.1 km/h 58 % 0 mm
20:29 -13.1 °C -17.7 °C 34601.5 hPa Calm     56 % 0 mm
20:34 -13.2 °C -17.8 °C 34601.5 hPa WNW 3.1 km/h 3.1 km/h 56 % 0 mm
20:35 -14.7 °C -18.9 °C 34635.4 hPa WSW 2.6 km/h 5.1 km/h 58 % 0 mm
20:39 -13.2 °C -17.8 °C 34567.7 hPa North 3.1 km/h 3.1 km/h 56 % 0 mm
20:44 -13.2 °C -17.8 °C 34567.7 hPa Calm     56 % 0 mm
20:45 -14.7 °C -18.8 °C 34601.5 hPa Calm   5.1 km/h 59 % 0 mm
20:49 -13.2 °C -17.8 °C 34567.7 hPa West 3.1 km/h 3.1 km/h 56 % 0 mm
20:54 -13.2 °C -17.8 °C 34601.5 hPa Calm     56 % 0 mm
20:55 -14.7 °C -18.8 °C 34601.5 hPa WSW 2.6 km/h 5.1 km/h 59 % 0 mm
20:59 -13.3 °C -17.9 °C 34601.5 hPa West 2.3 km/h   56 % 0 mm
21:04 -13.3 °C -17.9 °C 34601.5 hPa WNW 3.1 km/h   56 % 0 mm
21:05 -14.8 °C -18.9 °C 34601.5 hPa West 2.6 km/h 5.1 km/h 59 % 0 mm
21:09 -13.3 °C -17.9 °C 34601.5 hPa Calm     56 % 0 mm
21:14 -13.3 °C -17.9 °C 34601.5 hPa West 6 km/h 6 km/h 56 % 0 mm
21:15 -14.8 °C -18.8 °C 34601.5 hPa West 2.6 km/h 5.1 km/h 60 % 0 mm
21:19 -13.3 °C -17.9 °C 34601.5 hPa WSW 6 km/h 6 km/h 56 % 0 mm
21:24 -13.4 °C -18 °C 34567.7 hPa WSW 3.1 km/h   56 % 0 mm
21:25 -14.9 °C -18.9 °C 34635.4 hPa North 5.1 km/h 7.7 km/h 60 % 0 mm
21:29 -13.4 °C -17.9 °C 34567.7 hPa SE 3.1 km/h 3.1 km/h 56 % 0 mm
21:34 -13.3 °C -17.9 °C 34567.7 hPa North 3.1 km/h   56 % 0 mm
21:35 -15.2 °C -19 °C 34635.4 hPa Calm   2.6 km/h 61 % 0 mm
21:39 -13.2 °C -17.8 °C 34601.5 hPa WSW 5.6 km/h   56 % 0 mm
21:44 -13.1 °C -17.8 °C 34601.5 hPa WSW 6 km/h 6 km/h 55 % 0 mm
21:45 -15.3 °C -19.1 °C 34635.4 hPa Calm   2.6 km/h 61 % 0 mm
21:49 -13.1 °C -17.8 °C 34601.5 hPa WSW 3.1 km/h   55 % 0 mm
21:54 -13 °C -17.7 °C 34601.5 hPa WSW 4.2 km/h 4.2 km/h 55 % 0 mm
21:55 -15.3 °C -19.2 °C 34635.4 hPa ESE 5.1 km/h 5.1 km/h 61 % 0 mm
21:59 -13 °C -17.7 °C 34601.5 hPa WSW 6 km/h 6 km/h 55 % 0 mm
22:04 -13.2 °C -17.9 °C 34601.5 hPa West 9 km/h 9 km/h 55 % 0 mm
22:05 -15.3 °C -19.1 °C 34635.4 hPa Calm   5.1 km/h 62 % 0 mm
22:09 -13.2 °C -17.9 °C 34601.5 hPa WSW 6 km/h 6 km/h 55 % 0 mm
22:14 -13.1 °C -17.8 °C 34601.5 hPa NNW 6 km/h 6 km/h 55 % 0 mm
22:15 -15.4 °C -19.1 °C 34635.4 hPa West 2.6 km/h 5.1 km/h 62 % 0 mm
22:19 -13.1 °C -17.8 °C 34601.5 hPa West 9.3 km/h 9.3 km/h 55 % 0 mm
22:24 -13 °C -17.9 °C 34601.5 hPa West 11.9 km/h 11.9 km/h 54 % 0 mm
22:25 -15.4 °C -18.9 °C 34635.4 hPa NE 2.6 km/h 5.1 km/h 63 % 0 mm
22:29 -12.9 °C -17.8 °C 34601.5 hPa West 6.8 km/h 6.8 km/h 54 % 0 mm
22:34 -12.9 °C -17.8 °C 34601.5 hPa East 11.9 km/h 11.9 km/h 54 % 0 mm
22:35 -15.3 °C -18.8 °C 34635.4 hPa NE 2.6 km/h 2.6 km/h 63 % 0 mm
22:39 -12.8 °C -17.7 °C 34601.5 hPa West 9 km/h 9 km/h 54 % 0 mm
22:44 -12.8 °C -17.7 °C 34601.5 hPa West 12.2 km/h 12.2 km/h 54 % 0 mm
22:45 -15.2 °C -18.9 °C 34635.4 hPa NE 2.6 km/h 5.1 km/h 62 % 0 mm
22:49 -12.9 °C -17.8 °C 34601.5 hPa WSW 11.9 km/h 11.9 km/h 54 % 0 mm
22:54 -12.9 °C -17.8 °C 34601.5 hPa WSW 9 km/h 9 km/h 54 % 0 mm
22:55 -15.3 °C -19.1 °C 34635.4 hPa NNE 2.6 km/h 5.1 km/h 62 % 0 mm
22:59 -13 °C -17.9 °C 34601.5 hPa SW 9 km/h 9 km/h 54 % 0 mm
23:04 -13.1 °C -18 °C 34601.5 hPa WSW 6 km/h 6.3 km/h 54 % 0 mm
23:05 -15.3 °C -18.9 °C 34635.4 hPa NNE 2.6 km/h 2.6 km/h 63 % 0 mm
23:09 -13.2 °C -18.1 °C 34601.5 hPa SW 6 km/h 6 km/h 54 % 0 mm
23:14 -13.2 °C -18.1 °C 34601.5 hPa WSW 9 km/h 9 km/h 54 % 0 mm
23:15 -15.4 °C -18.9 °C 34635.4 hPa Calm   2.6 km/h 63 % 0 mm
23:19 -13.2 °C -18.1 °C 34601.5 hPa West 15 km/h 15 km/h 54 % 0 mm
23:24 -13.3 °C -18.2 °C 34601.5 hPa West 9 km/h 9 km/h 54 % 0 mm
23:25 -15.4 °C -18.9 °C 34635.4 hPa NNE 5.1 km/h 7.7 km/h 63 % 0 mm
23:29 -13.3 °C -18.2 °C 34601.5 hPa SW 6 km/h 6 km/h 54 % 0 mm
23:34 -13.3 °C -18.2 °C 34601.5 hPa SSW 6 km/h 6 km/h 54 % 0 mm
23:35 -15.4 °C -19 °C 34635.4 hPa NNE 2.6 km/h 7.7 km/h 63 % 0 mm
23:39 -13.4 °C -18.2 °C 34635.4 hPa SW 3.1 km/h   55 % 0 mm
23:44 -13.5 °C -18.2 °C 34635.4 hPa SW 3.1 km/h   55 % 0 mm
23:45 -15.5 °C -19.1 °C 34635.4 hPa NE 2.6 km/h 5.1 km/h 63 % 0 mm
23:49 -13.6 °C -18.3 °C 34635.4 hPa West 9.8 km/h 9.8 km/h 55 % 0 mm
23:54 -13.5 °C -18.2 °C 34635.4 hPa West 6 km/h 6 km/h 55 % 0 mm
23:55 -15.6 °C -19.2 °C 34669.3 hPa Calm   2.6 km/h 63 % 0 mm
23:59 -13.4 °C -18.2 °C 34635.4 hPa WNW 9 km/h 9 km/h 55 % 0 mm
Meteo Sesrovires
Elogis d' Weather Underground - 1.5 mb

Guio original per  Jim McMurry - jmcmurry@mwt.net Adaptat per a la plantilla per  Wim van der Kuil - Leuven-Template.eu

Trobareu la nostra informacio del temps tambe a:

Weather Underground

AWEKAS